KOBE

Details ICAO KOBE (OBE)
Name OKEECHOBEE CO
Region United States
Timezone America/New_York (UTC-4.0)
Plans Departing 8
Arriving 11
Stats Elevation 34 ft / 10 m (AMSL)
Location 27.263334° -80.849306°
Runways 2
Magnetic Variation 6.556° W
Sunrise 2018-05-21 10:33:36 UTC / 2018-05-21 06:33:36 Local
Sunset 2018-05-22 00:09:16 UTC / 2018-05-21 20:09:16 Local
Advertisement - Login to hide

Runways

ID Width Length Bearing (true) Bearing (mag) Surface Threshold Offset Overrun Length
05 150 ft / 46 m 5,066 ft / 1,544 m 43.92° 50.48° Asphalt 0 ft / 0 m 0 ft / 0 m
14 150 ft / 46 m 3,982 ft / 1,214 m 135.46° 142.02° Asphalt 0 ft / 0 m 0 ft / 0 m
23 150 ft / 46 m 5,066 ft / 1,544 m 223.92° 230.48° Asphalt 0 ft / 0 m 0 ft / 0 m
32 150 ft / 46 m 3,982 ft / 1,214 m 315.46° 322.02° Asphalt 0 ft / 0 m 0 ft / 0 m

Map

Weather


0- 5 10 15 20 25 30 35+ Temperature / ° C

Clouds and Precipitation
Forecast for 2018-05-22 00:00 UTC. Updated 3 hours ago

Ground ~20,000 ft ~40,000 ft Winds

METAR

KOBE 220235Z AUTO 00000KT 7SM CLR 22/22 A3007 RMK AO2

TAF

Not found

Frequencies

Recorded 118.67 MHz ASOS
Unicom 123.00 MHz CTAF/UNICOM
Warning: Do not use this data for real-world aviation or navigation. No guarantee of current accuracy is given.